sensor_id;sensor_type;location;lat;lon;timestamp;P1;durP1;ratioP1;P2;durP2;ratioP2
12910;SDS011;6523;49.758;6.120;2024-02-21T00:01:23;15.27;;;7.10;;
12910;SDS011;6523;49.758;6.120;2024-02-21T00:03:49;15.27;;;6.83;;
12910;SDS011;6523;49.758;6.120;2024-02-21T00:06:14;11.63;;;6.80;;
12910;SDS011;6523;49.758;6.120;2024-02-21T00:08:40;12.03;;;6.27;;
12910;SDS011;6523;49.758;6.120;2024-02-21T00:11:05;17.90;;;6.93;;
12910;SDS011;6523;49.758;6.120;2024-02-21T00:13:31;11.70;;;6.40;;
12910;SDS011;6523;49.758;6.120;2024-02-21T00:15:57;18.17;;;7.10;;
12910;SDS011;6523;49.758;6.120;2024-02-21T00:18:24;13.33;;;6.50;;
12910;SDS011;6523;49.758;6.120;2024-02-21T00:20:50;12.53;;;7.60;;
12910;SDS011;6523;49.758;6.120;2024-02-21T00:23:16;18.83;;;7.37;;
12910;SDS011;6523;49.758;6.120;2024-02-21T00:25:41;10.10;;;6.50;;
12910;SDS011;6523;49.758;6.120;2024-02-21T00:28:07;16.13;;;6.60;;
12910;SDS011;6523;49.758;6.120;2024-02-21T00:30:32;13.27;;;7.77;;
12910;SDS011;6523;49.758;6.120;2024-02-21T00:32:58;13.83;;;7.07;;
12910;SDS011;6523;49.758;6.120;2024-02-21T00:35:24;11.97;;;7.20;;
12910;SDS011;6523;49.758;6.120;2024-02-21T00:37:50;12.57;;;6.80;;
12910;SDS011;6523;49.758;6.120;2024-02-21T00:40:16;14.70;;;7.70;;
12910;SDS011;6523;49.758;6.120;2024-02-21T00:42:45;12.07;;;6.87;;
12910;SDS011;6523;49.758;6.120;2024-02-21T00:45:11;13.53;;;7.57;;
12910;SDS011;6523;49.758;6.120;2024-02-21T00:47:36;12.43;;;7.13;;
12910;SDS011;6523;49.758;6.120;2024-02-21T00:50:02;15.00;;;7.60;;
12910;SDS011;6523;49.758;6.120;2024-02-21T00:52:28;14.27;;;7.17;;
12910;SDS011;6523;49.758;6.120;2024-02-21T00:54:53;13.70;;;7.40;;
12910;SDS011;6523;49.758;6.120;2024-02-21T00:57:19;14.53;;;7.00;;
12910;SDS011;6523;49.758;6.120;2024-02-21T00:59:45;13.90;;;7.13;;
12910;SDS011;6523;49.758;6.120;2024-02-21T01:02:10;13.67;;;6.93;;
12910;SDS011;6523;49.758;6.120;2024-02-21T01:04:36;16.07;;;7.90;;
12910;SDS011;6523;49.758;6.120;2024-02-21T01:07:01;15.13;;;6.80;;
12910;SDS011;6523;49.758;6.120;2024-02-21T01:09:27;17.53;;;6.93;;
12910;SDS011;6523;49.758;6.120;2024-02-21T01:11:53;13.47;;;6.77;;
12910;SDS011;6523;49.758;6.120;2024-02-21T01:14:18;13.03;;;7.00;;
12910;SDS011;6523;49.758;6.120;2024-02-21T01:16:44;15.03;;;6.67;;
12910;SDS011;6523;49.758;6.120;2024-02-21T01:19:10;11.50;;;7.10;;
12910;SDS011;6523;49.758;6.120;2024-02-21T01:21:35;12.57;;;6.43;;
12910;SDS011;6523;49.758;6.120;2024-02-21T01:24:01;12.13;;;7.07;;
12910;SDS011;6523;49.758;6.120;2024-02-21T01:26:27;12.87;;;5.93;;
12910;SDS011;6523;49.758;6.120;2024-02-21T01:28:52;10.40;;;6.53;;
12910;SDS011;6523;49.758;6.120;2024-02-21T01:31:18;14.47;;;6.63;;
12910;SDS011;6523;49.758;6.120;2024-02-21T01:33:43;11.33;;;5.57;;
12910;SDS011;6523;49.758;6.120;2024-02-21T01:36:09;12.47;;;6.20;;
12910;SDS011;6523;49.758;6.120;2024-02-21T01:38:35;10.10;;;6.27;;
12910;SDS011;6523;49.758;6.120;2024-02-21T01:41:01;12.03;;;6.40;;
12910;SDS011;6523;49.758;6.120;2024-02-21T01:43:26;15.40;;;5.63;;
12910;SDS011;6523;49.758;6.120;2024-02-21T01:45:53;9.10;;;6.07;;
12910;SDS011;6523;49.758;6.120;2024-02-21T01:48:20;13.20;;;5.73;;
12910;SDS011;6523;49.758;6.120;2024-02-21T01:50:47;10.93;;;5.60;;
12910;SDS011;6523;49.758;6.120;2024-02-21T01:53:30;12.90;;;5.70;;
12910;SDS011;6523;49.758;6.120;2024-02-21T01:56:00;12.23;;;5.23;;
12910;SDS011;6523;49.758;6.120;2024-02-21T01:58:26;9.07;;;5.50;;
12910;SDS011;6523;49.758;6.120;2024-02-21T02:00:53;13.03;;;5.70;;
12910;SDS011;6523;49.758;6.120;2024-02-21T02:03:22;11.37;;;5.10;;
12910;SDS011;6523;49.758;6.120;2024-02-21T02:05:48;7.83;;;5.60;;
12910;SDS011;6523;49.758;6.120;2024-02-21T02:08:14;10.47;;;5.60;;
12910;SDS011;6523;49.758;6.120;2024-02-21T02:10:41;11.97;;;6.00;;
12910;SDS011;6523;49.758;6.120;2024-02-21T02:13:07;13.03;;;6.30;;
12910;SDS011;6523;49.758;6.120;2024-02-21T02:15:40;14.13;;;6.27;;
12910;SDS011;6523;49.758;6.120;2024-02-21T02:18:06;10.87;;;6.00;;
12910;SDS011;6523;49.758;6.120;2024-02-21T02:20:32;9.70;;;5.20;;
12910;SDS011;6523;49.758;6.120;2024-02-21T02:23:03;10.97;;;5.60;;
12910;SDS011;6523;49.758;6.120;2024-02-21T02:25:48;10.20;;;6.33;;
12910;SDS011;6523;49.758;6.120;2024-02-21T02:28:17;12.73;;;5.63;;
12910;SDS011;6523;49.758;6.120;2024-02-21T02:30:43;10.37;;;6.03;;
12910;SDS011;6523;49.758;6.120;2024-02-21T02:33:09;11.07;;;5.97;;
12910;SDS011;6523;49.758;6.120;2024-02-21T02:35:35;12.50;;;5.20;;
12910;SDS011;6523;49.758;6.120;2024-02-21T02:38:01;10.80;;;5.80;;
12910;SDS011;6523;49.758;6.120;2024-02-21T02:40:28;10.60;;;5.27;;
12910;SDS011;6523;49.758;6.120;2024-02-21T02:42:53;11.37;;;5.50;;
12910;SDS011;6523;49.758;6.120;2024-02-21T02:45:22;12.60;;;5.83;;
12910;SDS011;6523;49.758;6.120;2024-02-21T02:47:49;13.90;;;5.77;;
12910;SDS011;6523;49.758;6.120;2024-02-21T02:50:14;10.27;;;5.57;;
12910;SDS011;6523;49.758;6.120;2024-02-21T02:52:40;9.50;;;5.77;;
12910;SDS011;6523;49.758;6.120;2024-02-21T02:55:06;12.40;;;5.87;;
12910;SDS011;6523;49.758;6.120;2024-02-21T02:57:32;12.97;;;5.60;;
12910;SDS011;6523;49.758;6.120;2024-02-21T02:59:58;8.47;;;5.20;;
12910;SDS011;6523;49.758;6.120;2024-02-21T03:02:24;11.30;;;6.20;;
12910;SDS011;6523;49.758;6.120;2024-02-21T03:04:49;13.60;;;5.97;;
12910;SDS011;6523;49.758;6.120;2024-02-21T03:07:15;13.10;;;5.70;;
12910;SDS011;6523;49.758;6.120;2024-02-21T03:09:41;10.43;;;5.53;;
12910;SDS011;6523;49.758;6.120;2024-02-21T03:12:09;11.70;;;6.47;;
12910;SDS011;6523;49.758;6.120;2024-02-21T03:14:35;13.60;;;6.53;;
12910;SDS011;6523;49.758;6.120;2024-02-21T03:17:01;12.80;;;5.80;;
12910;SDS011;6523;49.758;6.120;2024-02-21T03:19:27;12.23;;;6.13;;
12910;SDS011;6523;49.758;6.120;2024-02-21T03:21:53;8.63;;;5.37;;
12910;SDS011;6523;49.758;6.120;2024-02-21T03:24:19;13.33;;;5.83;;
12910;SDS011;6523;49.758;6.120;2024-02-21T03:26:45;10.87;;;5.50;;
12910;SDS011;6523;49.758;6.120;2024-02-21T03:29:14;12.37;;;5.80;;
12910;SDS011;6523;49.758;6.120;2024-02-21T03:31:40;12.63;;;5.80;;
12910;SDS011;6523;49.758;6.120;2024-02-21T03:34:06;13.90;;;5.80;;
12910;SDS011;6523;49.758;6.120;2024-02-21T03:36:32;12.60;;;5.60;;
12910;SDS011;6523;49.758;6.120;2024-02-21T03:38:58;13.43;;;5.47;;
12910;SDS011;6523;49.758;6.120;2024-02-21T03:41:24;10.47;;;6.00;;
12910;SDS011;6523;49.758;6.120;2024-02-21T03:43:50;9.13;;;5.23;;
12910;SDS011;6523;49.758;6.120;2024-02-21T03:46:15;12.10;;;6.40;;
12910;SDS011;6523;49.758;6.120;2024-02-21T03:48:41;12.93;;;5.63;;
12910;SDS011;6523;49.758;6.120;2024-02-21T03:51:07;11.17;;;5.37;;
12910;SDS011;6523;49.758;6.120;2024-02-21T03:53:32;8.47;;;4.90;;
12910;SDS011;6523;49.758;6.120;2024-02-21T03:56:01;10.00;;;5.07;;
12910;SDS011;6523;49.758;6.120;2024-02-21T03:58:28;12.27;;;5.57;;
12910;SDS011;6523;49.758;6.120;2024-02-21T04:00:55;13.23;;;5.20;;
12910;SDS011;6523;49.758;6.120;2024-02-21T04:03:20;10.73;;;5.63;;
12910;SDS011;6523;49.758;6.120;2024-02-21T04:05:46;12.87;;;5.40;;
12910;SDS011;6523;49.758;6.120;2024-02-21T04:08:12;15.03;;;5.30;;
12910;SDS011;6523;49.758;6.120;2024-02-21T04:10:37;11.83;;;6.20;;
12910;SDS011;6523;49.758;6.120;2024-02-21T04:13:03;12.60;;;5.23;;
12910;SDS011;6523;49.758;6.120;2024-02-21T04:15:31;15.10;;;5.20;;
12910;SDS011;6523;49.758;6.120;2024-02-21T04:17:56;15.40;;;4.97;;
12910;SDS011;6523;49.758;6.120;2024-02-21T04:20:22;14.10;;;6.20;;
12910;SDS011;6523;49.758;6.120;2024-02-21T04:22:48;12.80;;;5.50;;
12910;SDS011;6523;49.758;6.120;2024-02-21T04:25:14;12.90;;;5.83;;
12910;SDS011;6523;49.758;6.120;2024-02-21T04:27:40;13.30;;;5.80;;
12910;SDS011;6523;49.758;6.120;2024-02-21T04:30:06;11.03;;;5.70;;
12910;SDS011;6523;49.758;6.120;2024-02-21T04:32:32;12.03;;;5.47;;
12910;SDS011;6523;49.758;6.120;2024-02-21T04:34:58;12.87;;;5.63;;
12910;SDS011;6523;49.758;6.120;2024-02-21T04:37:23;12.97;;;5.53;;
12910;SDS011;6523;49.758;6.120;2024-02-21T04:39:49;11.03;;;5.43;;
12910;SDS011;6523;49.758;6.120;2024-02-21T04:42:16;15.10;;;5.47;;
12910;SDS011;6523;49.758;6.120;2024-02-21T04:44:42;17.90;;;6.50;;
12910;SDS011;6523;49.758;6.120;2024-02-21T04:47:07;11.93;;;5.30;;
12910;SDS011;6523;49.758;6.120;2024-02-21T04:49:33;11.43;;;5.20;;
12910;SDS011;6523;49.758;6.120;2024-02-21T04:52:00;11.57;;;5.37;;
12910;SDS011;6523;49.758;6.120;2024-02-21T04:54:25;13.40;;;4.93;;
12910;SDS011;6523;49.758;6.120;2024-02-21T04:56:51;15.60;;;5.07;;
12910;SDS011;6523;49.758;6.120;2024-02-21T04:59:17;18.70;;;6.30;;
12910;SDS011;6523;49.758;6.120;2024-02-21T05:01:43;11.63;;;5.13;;
12910;SDS011;6523;49.758;6.120;2024-02-21T05:04:08;13.80;;;5.40;;
12910;SDS011;6523;49.758;6.120;2024-02-21T05:06:38;16.40;;;5.37;;
12910;SDS011;6523;49.758;6.120;2024-02-21T05:09:07;13.07;;;5.17;;
12910;SDS011;6523;49.758;6.120;2024-02-21T05:11:33;10.57;;;5.40;;
12910;SDS011;6523;49.758;6.120;2024-02-21T05:13:59;9.97;;;5.47;;
12910;SDS011;6523;49.758;6.120;2024-02-21T05:16:25;12.27;;;5.60;;
12910;SDS011;6523;49.758;6.120;2024-02-21T05:18:51;13.90;;;5.50;;
12910;SDS011;6523;49.758;6.120;2024-02-21T05:21:16;13.50;;;6.03;;
12910;SDS011;6523;49.758;6.120;2024-02-21T05:23:42;14.63;;;5.40;;
12910;SDS011;6523;49.758;6.120;2024-02-21T05:26:08;8.43;;;5.70;;
12910;SDS011;6523;49.758;6.120;2024-02-21T05:28:34;13.97;;;5.40;;
12910;SDS011;6523;49.758;6.120;2024-02-21T05:30:59;14.30;;;5.33;;
12910;SDS011;6523;49.758;6.120;2024-02-21T05:33:25;9.83;;;5.83;;
12910;SDS011;6523;49.758;6.120;2024-02-21T05:35:51;12.57;;;5.23;;
12910;SDS011;6523;49.758;6.120;2024-02-21T05:38:17;14.63;;;5.33;;
12910;SDS011;6523;49.758;6.120;2024-02-21T05:40:42;10.37;;;5.40;;
12910;SDS011;6523;49.758;6.120;2024-02-21T05:43:09;10.33;;;5.17;;
12910;SDS011;6523;49.758;6.120;2024-02-21T05:45:36;11.50;;;5.30;;
12910;SDS011;6523;49.758;6.120;2024-02-21T05:48:02;13.83;;;5.83;;
12910;SDS011;6523;49.758;6.120;2024-02-21T05:50:28;7.87;;;4.77;;
12910;SDS011;6523;49.758;6.120;2024-02-21T05:52:54;12.23;;;5.70;;
12910;SDS011;6523;49.758;6.120;2024-02-21T05:55:21;10.97;;;5.53;;
12910;SDS011;6523;49.758;6.120;2024-02-21T05:57:47;8.77;;;4.93;;
12910;SDS011;6523;49.758;6.120;2024-02-21T06:00:13;13.67;;;5.37;;
12910;SDS011;6523;49.758;6.120;2024-02-21T06:02:39;11.10;;;5.40;;
12910;SDS011;6523;49.758;6.120;2024-02-21T06:05:05;13.17;;;5.80;;
12910;SDS011;6523;49.758;6.120;2024-02-21T06:07:32;11.67;;;5.80;;
12910;SDS011;6523;49.758;6.120;2024-02-21T06:09:59;10.77;;;5.40;;
12910;SDS011;6523;49.758;6.120;2024-02-21T06:12:26;10.87;;;5.50;;
12910;SDS011;6523;49.758;6.120;2024-02-21T06:14:51;11.23;;;4.97;;
12910;SDS011;6523;49.758;6.120;2024-02-21T06:17:17;8.47;;;4.97;;
12910;SDS011;6523;49.758;6.120;2024-02-21T06:19:43;10.27;;;4.93;;
12910;SDS011;6523;49.758;6.120;2024-02-21T06:22:09;13.63;;;5.73;;
12910;SDS011;6523;49.758;6.120;2024-02-21T06:24:35;8.93;;;4.77;;
12910;SDS011;6523;49.758;6.120;2024-02-21T06:27:04;11.30;;;5.30;;
12910;SDS011;6523;49.758;6.120;2024-02-21T06:29:31;11.87;;;5.40;;
12910;SDS011;6523;49.758;6.120;2024-02-21T06:31:57;13.47;;;4.83;;
12910;SDS011;6523;49.758;6.120;2024-02-21T06:34:22;12.63;;;5.43;;
12910;SDS011;6523;49.758;6.120;2024-02-21T06:36:49;11.40;;;5.10;;
12910;SDS011;6523;49.758;6.120;2024-02-21T06:39:15;8.80;;;4.50;;
12910;SDS011;6523;49.758;6.120;2024-02-21T06:41:41;10.40;;;4.83;;
12910;SDS011;6523;49.758;6.120;2024-02-21T06:44:06;8.70;;;5.10;;
12910;SDS011;6523;49.758;6.120;2024-02-21T06:46:32;11.03;;;5.50;;
12910;SDS011;6523;49.758;6.120;2024-02-21T06:48:58;8.07;;;4.43;;
12910;SDS011;6523;49.758;6.120;2024-02-21T06:51:25;15.00;;;5.00;;
12910;SDS011;6523;49.758;6.120;2024-02-21T06:53:51;10.33;;;4.83;;
12910;SDS011;6523;49.758;6.120;2024-02-21T06:56:17;8.57;;;4.50;;
12910;SDS011;6523;49.758;6.120;2024-02-21T06:58:43;9.07;;;4.83;;
12910;SDS011;6523;49.758;6.120;2024-02-21T07:01:08;11.37;;;4.63;;
12910;SDS011;6523;49.758;6.120;2024-02-21T07:03:35;9.00;;;4.73;;
12910;SDS011;6523;49.758;6.120;2024-02-21T07:06:00;11.80;;;4.83;;
12910;SDS011;6523;49.758;6.120;2024-02-21T07:08:27;9.17;;;4.47;;
12910;SDS011;6523;49.758;6.120;2024-02-21T07:10:52;10.50;;;4.57;;
12910;SDS011;6523;49.758;6.120;2024-02-21T07:13:18;13.80;;;4.50;;
12910;SDS011;6523;49.758;6.120;2024-02-21T07:15:43;11.73;;;5.23;;
12910;SDS011;6523;49.758;6.120;2024-02-21T07:18:09;13.53;;;5.40;;
12910;SDS011;6523;49.758;6.120;2024-02-21T07:20:35;8.67;;;4.80;;
12910;SDS011;6523;49.758;6.120;2024-02-21T07:23:02;10.40;;;4.37;;
12910;SDS011;6523;49.758;6.120;2024-02-21T07:25:29;11.03;;;4.67;;
12910;SDS011;6523;49.758;6.120;2024-02-21T07:27:54;9.27;;;4.37;;
12910;SDS011;6523;49.758;6.120;2024-02-21T07:30:20;7.43;;;4.60;;
12910;SDS011;6523;49.758;6.120;2024-02-21T07:32:48;14.57;;;5.30;;
12910;SDS011;6523;49.758;6.120;2024-02-21T07:35:15;12.80;;;5.13;;
12910;SDS011;6523;49.758;6.120;2024-02-21T07:37:41;14.30;;;6.33;;
12910;SDS011;6523;49.758;6.120;2024-02-21T07:40:06;13.50;;;6.00;;
12910;SDS011;6523;49.758;6.120;2024-02-21T07:42:41;13.67;;;6.03;;
12910;SDS011;6523;49.758;6.120;2024-02-21T07:45:07;10.43;;;6.20;;
12910;SDS011;6523;49.758;6.120;2024-02-21T07:47:33;11.10;;;5.87;;
12910;SDS011;6523;49.758;6.120;2024-02-21T07:49:59;12.10;;;6.60;;
12910;SDS011;6523;49.758;6.120;2024-02-21T07:52:26;13.37;;;6.60;;
12910;SDS011;6523;49.758;6.120;2024-02-21T07:54:52;15.63;;;7.53;;
12910;SDS011;6523;49.758;6.120;2024-02-21T07:57:17;13.10;;;6.47;;
12910;SDS011;6523;49.758;6.120;2024-02-21T07:59:43;12.23;;;6.87;;
12910;SDS011;6523;49.758;6.120;2024-02-21T08:02:08;11.20;;;6.40;;
12910;SDS011;6523;49.758;6.120;2024-02-21T08:04:34;12.70;;;6.70;;
12910;SDS011;6523;49.758;6.120;2024-02-21T08:07:00;13.70;;;6.90;;
12910;SDS011;6523;49.758;6.120;2024-02-21T08:09:29;11.23;;;6.60;;
12910;SDS011;6523;49.758;6.120;2024-02-21T08:11:55;10.13;;;6.37;;
12910;SDS011;6523;49.758;6.120;2024-02-21T08:14:20;11.57;;;6.10;;
12910;SDS011;6523;49.758;6.120;2024-02-21T08:16:47;13.53;;;6.50;;
12910;SDS011;6523;49.758;6.120;2024-02-21T08:19:12;13.27;;;5.83;;
12910;SDS011;6523;49.758;6.120;2024-02-21T08:21:38;10.80;;;6.73;;
12910;SDS011;6523;49.758;6.120;2024-02-21T08:24:04;12.73;;;6.40;;
12910;SDS011;6523;49.758;6.120;2024-02-21T08:26:30;12.73;;;6.60;;
12910;SDS011;6523;49.758;6.120;2024-02-21T08:28:59;14.03;;;6.43;;
12910;SDS011;6523;49.758;6.120;2024-02-21T08:31:28;13.73;;;6.73;;
12910;SDS011;6523;49.758;6.120;2024-02-21T08:33:56;13.97;;;7.13;;
12910;SDS011;6523;49.758;6.120;2024-02-21T08:36:27;12.77;;;6.60;;
12910;SDS011;6523;49.758;6.120;2024-02-21T08:38:54;11.10;;;7.03;;
12910;SDS011;6523;49.758;6.120;2024-02-21T08:41:20;13.33;;;7.00;;
12910;SDS011;6523;49.758;6.120;2024-02-21T08:43:48;11.63;;;6.73;;
12910;SDS011;6523;49.758;6.120;2024-02-21T08:46:14;9.50;;;6.43;;
12910;SDS011;6523;49.758;6.120;2024-02-21T08:48:40;9.80;;;6.10;;
12910;SDS011;6523;49.758;6.120;2024-02-21T08:51:06;13.30;;;6.37;;
12910;SDS011;6523;49.758;6.120;2024-02-21T08:53:31;8.07;;;5.60;;
12910;SDS011;6523;49.758;6.120;2024-02-21T08:55:57;10.00;;;6.20;;
12910;SDS011;6523;49.758;6.120;2024-02-21T08:58:24;15.43;;;6.93;;
12910;SDS011;6523;49.758;6.120;2024-02-21T09:00:51;12.67;;;6.50;;
12910;SDS011;6523;49.758;6.120;2024-02-21T09:03:17;16.07;;;6.67;;
12910;SDS011;6523;49.758;6.120;2024-02-21T09:05:45;11.93;;;7.07;;
12910;SDS011;6523;49.758;6.120;2024-02-21T09:08:11;13.97;;;6.93;;
12910;SDS011;6523;49.758;6.120;2024-02-21T09:10:37;12.90;;;6.53;;
12910;SDS011;6523;49.758;6.120;2024-02-21T09:13:02;15.17;;;6.17;;
12910;SDS011;6523;49.758;6.120;2024-02-21T09:15:28;10.73;;;7.37;;
12910;SDS011;6523;49.758;6.120;2024-02-21T09:17:54;11.50;;;6.53;;
12910;SDS011;6523;49.758;6.120;2024-02-21T09:20:20;10.83;;;6.63;;
12910;SDS011;6523;49.758;6.120;2024-02-21T09:22:46;9.23;;;6.27;;
12910;SDS011;6523;49.758;6.120;2024-02-21T09:25:12;8.77;;;6.10;;
12910;SDS011;6523;49.758;6.120;2024-02-21T09:27:38;11.07;;;5.93;;
12910;SDS011;6523;49.758;6.120;2024-02-21T09:30:04;11.97;;;5.30;;
12910;SDS011;6523;49.758;6.120;2024-02-21T09:32:31;10.53;;;5.00;;
12910;SDS011;6523;49.758;6.120;2024-02-21T09:34:57;10.53;;;4.90;;
12910;SDS011;6523;49.758;6.120;2024-02-21T09:37:23;15.43;;;5.10;;
12910;SDS011;6523;49.758;6.120;2024-02-21T09:39:49;9.63;;;4.97;;
12910;SDS011;6523;49.758;6.120;2024-02-21T09:42:18;10.37;;;4.73;;
12910;SDS011;6523;49.758;6.120;2024-02-21T09:44:46;10.73;;;4.70;;
12910;SDS011;6523;49.758;6.120;2024-02-21T09:47:17;9.87;;;4.80;;
12910;SDS011;6523;49.758;6.120;2024-02-21T09:49:49;12.87;;;5.80;;
12910;SDS011;6523;49.758;6.120;2024-02-21T09:52:16;9.83;;;5.00;;
12910;SDS011;6523;49.758;6.120;2024-02-21T09:54:43;13.57;;;4.93;;
12910;SDS011;6523;49.758;6.120;2024-02-21T09:57:09;8.93;;;5.00;;
12910;SDS011;6523;49.758;6.120;2024-02-21T09:59:35;9.67;;;5.50;;
12910;SDS011;6523;49.758;6.120;2024-02-21T10:02:02;7.57;;;5.63;;
12910;SDS011;6523;49.758;6.120;2024-02-21T10:04:28;8.70;;;5.23;;
12910;SDS011;6523;49.758;6.120;2024-02-21T10:06:54;9.27;;;5.17;;
12910;SDS011;6523;49.758;6.120;2024-02-21T10:09:27;11.03;;;6.00;;
12910;SDS011;6523;49.758;6.120;2024-02-21T10:11:53;9.27;;;5.53;;
12910;SDS011;6523;49.758;6.120;2024-02-21T10:14:19;10.60;;;6.20;;
12910;SDS011;6523;49.758;6.120;2024-02-21T10:16:47;13.43;;;5.97;;
12910;SDS011;6523;49.758;6.120;2024-02-21T10:19:19;10.17;;;6.10;;
12910;SDS011;6523;49.758;6.120;2024-02-21T10:22:01;10.97;;;5.27;;
12910;SDS011;6523;49.758;6.120;2024-02-21T10:24:28;9.87;;;5.53;;
12910;SDS011;6523;49.758;6.120;2024-02-21T10:26:58;11.70;;;5.33;;
12910;SDS011;6523;49.758;6.120;2024-02-21T10:29:28;9.57;;;4.73;;
12910;SDS011;6523;49.758;6.120;2024-02-21T10:32:13;11.03;;;5.07;;
12910;SDS011;6523;49.758;6.120;2024-02-21T10:34:39;11.43;;;5.00;;
12910;SDS011;6523;49.758;6.120;2024-02-21T10:37:07;10.90;;;4.60;;
12910;SDS011;6523;49.758;6.120;2024-02-21T10:39:34;12.07;;;4.50;;
12910;SDS011;6523;49.758;6.120;2024-02-21T10:42:02;12.47;;;4.80;;
12910;SDS011;6523;49.758;6.120;2024-02-21T10:44:29;10.23;;;4.13;;
12910;SDS011;6523;49.758;6.120;2024-02-21T10:46:59;9.27;;;4.30;;
12910;SDS011;6523;49.758;6.120;2024-02-21T10:49:26;9.50;;;4.70;;
12910;SDS011;6523;49.758;6.120;2024-02-21T10:54:48;9.87;;;4.17;;
12910;SDS011;6523;49.758;6.120;2024-02-21T10:57:23;7.80;;;3.83;;
12910;SDS011;6523;49.758;6.120;2024-02-21T10:59:52;11.20;;;4.37;;
12910;SDS011;6523;49.758;6.120;2024-02-21T11:02:19;11.17;;;4.17;;
12910;SDS011;6523;49.758;6.120;2024-02-21T11:04:45;7.80;;;3.60;;
12910;SDS011;6523;49.758;6.120;2024-02-21T11:07:13;7.47;;;3.77;;
12910;SDS011;6523;49.758;6.120;2024-02-21T11:09:40;8.17;;;3.67;;
12910;SDS011;6523;49.758;6.120;2024-02-21T11:12:22;5.77;;;3.43;;
12910;SDS011;6523;49.758;6.120;2024-02-21T11:14:48;10.30;;;4.27;;
12910;SDS011;6523;49.758;6.120;2024-02-21T11:17:19;9.37;;;4.13;;
12910;SDS011;6523;49.758;6.120;2024-02-21T11:19:51;8.70;;;3.70;;
12910;SDS011;6523;49.758;6.120;2024-02-21T11:22:17;8.83;;;4.17;;
12910;SDS011;6523;49.758;6.120;2024-02-21T11:24:44;9.90;;;4.67;;
12910;SDS011;6523;49.758;6.120;2024-02-21T11:27:14;9.67;;;3.93;;
12910;SDS011;6523;49.758;6.120;2024-02-21T11:29:54;9.77;;;4.20;;
12910;SDS011;6523;49.758;6.120;2024-02-21T11:32:24;8.20;;;4.13;;
12910;SDS011;6523;49.758;6.120;2024-02-21T11:34:54;9.30;;;4.13;;
12910;SDS011;6523;49.758;6.120;2024-02-21T11:37:20;7.33;;;3.80;;
12910;SDS011;6523;49.758;6.120;2024-02-21T11:39:45;9.03;;;4.37;;
12910;SDS011;6523;49.758;6.120;2024-02-21T11:42:11;10.77;;;4.07;;
12910;SDS011;6523;49.758;6.120;2024-02-21T11:44:38;5.73;;;3.90;;
12910;SDS011;6523;49.758;6.120;2024-02-21T11:47:04;8.83;;;4.40;;
12910;SDS011;6523;49.758;6.120;2024-02-21T11:49:36;6.87;;;3.90;;
12910;SDS011;6523;49.758;6.120;2024-02-21T11:52:03;9.20;;;4.30;;
12910;SDS011;6523;49.758;6.120;2024-02-21T11:54:30;8.63;;;4.10;;
12910;SDS011;6523;49.758;6.120;2024-02-21T11:56:56;9.10;;;4.77;;
12910;SDS011;6523;49.758;6.120;2024-02-21T11:59:21;9.77;;;4.53;;
12910;SDS011;6523;49.758;6.120;2024-02-21T12:01:50;8.87;;;4.67;;
12910;SDS011;6523;49.758;6.120;2024-02-21T12:04:17;8.67;;;4.30;;
12910;SDS011;6523;49.758;6.120;2024-02-21T12:06:44;8.53;;;4.47;;
12910;SDS011;6523;49.758;6.120;2024-02-21T12:09:14;8.57;;;3.83;;
12910;SDS011;6523;49.758;6.120;2024-02-21T12:11:41;7.87;;;3.90;;
12910;SDS011;6523;49.758;6.120;2024-02-21T12:14:07;11.00;;;4.33;;
12910;SDS011;6523;49.758;6.120;2024-02-21T12:16:34;7.60;;;3.63;;
12910;SDS011;6523;49.758;6.120;2024-02-21T12:19:02;8.27;;;3.53;;
12910;SDS011;6523;49.758;6.120;2024-02-21T12:21:32;7.40;;;3.37;;
12910;SDS011;6523;49.758;6.120;2024-02-21T12:24:11;6.07;;;3.50;;
12910;SDS011;6523;49.758;6.120;2024-02-21T12:26:46;11.23;;;3.40;;
12910;SDS011;6523;49.758;6.120;2024-02-21T12:29:12;7.10;;;3.60;;
12910;SDS011;6523;49.758;6.120;2024-02-21T12:31:38;5.10;;;3.60;;
12910;SDS011;6523;49.758;6.120;2024-02-21T12:34:04;7.20;;;3.57;;
12910;SDS011;6523;49.758;6.120;2024-02-21T12:36:32;6.17;;;3.37;;
12910;SDS011;6523;49.758;6.120;2024-02-21T12:38:58;4.67;;;2.90;;
12910;SDS011;6523;49.758;6.120;2024-02-21T12:41:26;7.70;;;4.00;;
12910;SDS011;6523;49.758;6.120;2024-02-21T12:43:53;9.40;;;3.77;;
12910;SDS011;6523;49.758;6.120;2024-02-21T12:46:19;7.30;;;3.10;;
12910;SDS011;6523;49.758;6.120;2024-02-21T12:48:44;8.00;;;3.20;;
12910;SDS011;6523;49.758;6.120;2024-02-21T12:51:10;3.73;;;2.83;;
12910;SDS011;6523;49.758;6.120;2024-02-21T12:53:36;8.43;;;3.33;;
12910;SDS011;6523;49.758;6.120;2024-02-21T12:56:01;7.97;;;3.00;;
12910;SDS011;6523;49.758;6.120;2024-02-21T12:58:27;6.07;;;3.13;;
12910;SDS011;6523;49.758;6.120;2024-02-21T13:00:56;5.80;;;3.20;;
12910;SDS011;6523;49.758;6.120;2024-02-21T13:03:22;7.47;;;2.97;;
12910;SDS011;6523;49.758;6.120;2024-02-21T13:05:47;8.07;;;2.90;;
12910;SDS011;6523;49.758;6.120;2024-02-21T13:08:13;8.13;;;3.13;;
12910;SDS011;6523;49.758;6.120;2024-02-21T13:10:39;6.93;;;3.13;;
12910;SDS011;6523;49.758;6.120;2024-02-21T13:13:04;6.17;;;3.50;;
12910;SDS011;6523;49.758;6.120;2024-02-21T13:15:30;5.37;;;2.77;;
12910;SDS011;6523;49.758;6.120;2024-02-21T13:17:56;6.73;;;3.43;;
12910;SDS011;6523;49.758;6.120;2024-02-21T13:20:22;7.87;;;2.80;;
12910;SDS011;6523;49.758;6.120;2024-02-21T13:22:48;5.93;;;2.93;;
12910;SDS011;6523;49.758;6.120;2024-02-21T13:25:14;8.10;;;2.90;;
12910;SDS011;6523;49.758;6.120;2024-02-21T13:27:43;8.57;;;3.20;;
12910;SDS011;6523;49.758;6.120;2024-02-21T13:30:09;4.53;;;3.20;;
12910;SDS011;6523;49.758;6.120;2024-02-21T13:32:35;6.27;;;3.00;;
12910;SDS011;6523;49.758;6.120;2024-02-21T13:35:01;7.30;;;3.10;;
12910;SDS011;6523;49.758;6.120;2024-02-21T13:37:28;8.63;;;3.10;;
12910;SDS011;6523;49.758;6.120;2024-02-21T13:39:54;7.23;;;3.00;;
12910;SDS011;6523;49.758;6.120;2024-02-21T13:42:20;5.10;;;3.00;;
12910;SDS011;6523;49.758;6.120;2024-02-21T13:44:45;7.63;;;3.20;;
12910;SDS011;6523;49.758;6.120;2024-02-21T13:47:12;5.00;;;2.67;;
12910;SDS011;6523;49.758;6.120;2024-02-21T13:49:39;4.60;;;3.10;;
12910;SDS011;6523;49.758;6.120;2024-02-21T13:52:05;4.63;;;2.80;;
12910;SDS011;6523;49.758;6.120;2024-02-21T13:54:31;8.00;;;3.27;;
12910;SDS011;6523;49.758;6.120;2024-02-21T13:56:56;8.07;;;3.30;;
12910;SDS011;6523;49.758;6.120;2024-02-21T13:59:22;8.83;;;2.70;;
12910;SDS011;6523;49.758;6.120;2024-02-21T14:01:47;9.83;;;3.03;;
12910;SDS011;6523;49.758;6.120;2024-02-21T14:04:16;10.43;;;3.20;;
12910;SDS011;6523;49.758;6.120;2024-02-21T14:06:42;8.07;;;3.13;;
12910;SDS011;6523;49.758;6.120;2024-02-21T14:09:10;5.13;;;3.10;;
12910;SDS011;6523;49.758;6.120;2024-02-21T14:11:36;5.73;;;2.80;;
12910;SDS011;6523;49.758;6.120;2024-02-21T14:14:03;4.07;;;2.70;;
12910;SDS011;6523;49.758;6.120;2024-02-21T14:16:29;7.07;;;3.33;;
12910;SDS011;6523;49.758;6.120;2024-02-21T14:18:55;5.20;;;2.80;;
12910;SDS011;6523;49.758;6.120;2024-02-21T14:21:20;3.40;;;2.53;;
12910;SDS011;6523;49.758;6.120;2024-02-21T14:23:46;11.57;;;3.00;;
12910;SDS011;6523;49.758;6.120;2024-02-21T14:26:12;4.80;;;3.00;;
12910;SDS011;6523;49.758;6.120;2024-02-21T14:28:39;7.27;;;2.70;;
12910;SDS011;6523;49.758;6.120;2024-02-21T14:31:05;8.17;;;2.60;;
12910;SDS011;6523;49.758;6.120;2024-02-21T14:33:34;6.90;;;2.87;;
12910;SDS011;6523;49.758;6.120;2024-02-21T14:36:00;7.77;;;2.77;;
12910;SDS011;6523;49.758;6.120;2024-02-21T14:38:27;6.10;;;2.90;;
12910;SDS011;6523;49.758;6.120;2024-02-21T14:40:53;6.87;;;3.20;;
12910;SDS011;6523;49.758;6.120;2024-02-21T14:43:19;7.53;;;2.83;;
12910;SDS011;6523;49.758;6.120;2024-02-21T14:45:48;9.30;;;2.70;;
12910;SDS011;6523;49.758;6.120;2024-02-21T14:48:14;5.83;;;2.80;;
12910;SDS011;6523;49.758;6.120;2024-02-21T14:50:40;8.47;;;2.90;;
12910;SDS011;6523;49.758;6.120;2024-02-21T14:53:09;5.87;;;2.47;;